McLean, Nebraska
Current Conditions -  °F | °C
As of 2:35 PM on Tuesday 21 Oct 2014 (Local Time) from KLCG Reporting Station
Clear Clear  
Wind Chill: 77°   Ceiling: Unl
Heat Index: 78°   Visibility: 10mi
Dew Point: 44°   Wind: 14mph
Humidity: 31%   Direction: 170°S
Pressure: 30.02"   Gusts: 18mph
Location:  42.39°N, 97.47°W
Report Text: KLCG 211935Z AUTO 17012G16KT 10SM CLR 25/07 A3002 RMK AO2 T02490066
Loading
Personal Weather Stations






























Interactive Weather Map New forecast layout! Learn more

10-Day Weather Forecast

Advertisements
Track Severe Weather on mobile